Serednikovo, Russia
Current Conditions -  °F | °C
As of 9:00 AM on Sunday 23 Nov 2014 (Local Time) from UUWW Reporting Station
Clear Clear  
Wind Chill: 13°   Ceiling: Unl
Heat Index: 19°   Visibility: 6mi
Dew Point: 12°   Wind: 4mph
Humidity: 74%   Direction: 230°SW
Pressure: 30.42"   Gusts: NA
Location:  55.83°N, 35.82°E
Report Text: UUWW 230600Z 23002MPS CAVOK M07/M11 Q1030 24190060 NOSIG
Loading
Personal Weather Stations






























Interactive Weather Map New forecast layout! Learn more

10-Day Weather Forecast

Advertisements
Track Severe Weather on mobile